createdAt,value
2018-08-12T00:00:35.676Z,10.25
2018-08-12T00:01:35.671Z,10.26
2018-08-12T00:02:35.660Z,10.2
2018-08-12T00:03:35.398Z,10.25
2018-08-12T00:04:35.648Z,10.21
2018-08-12T00:05:35.645Z,10.23
2018-08-12T00:06:35.620Z,10.18
2018-08-12T00:07:35.622Z,10.26
2018-08-12T00:08:35.344Z,10.25
2018-08-12T00:09:35.334Z,10.17
2018-08-12T00:10:35.587Z,10.28
2018-08-12T00:11:35.576Z,10.23
2018-08-12T00:12:35.314Z,10.31
2018-08-12T00:13:35.555Z,10.23
2018-08-12T00:14:35.297Z,10.31
2018-08-12T00:15:35.538Z,10.35
2018-08-12T00:16:35.534Z,10.31
2018-08-12T00:17:35.519Z,10.25
2018-08-12T00:18:35.513Z,10.28
2018-08-12T00:19:35.507Z,10.31
2018-08-12T00:20:35.498Z,10.31
2018-08-12T00:21:35.497Z,10.21
2018-08-12T00:22:35.219Z,10.14
2018-08-12T00:23:35.479Z,10.17
2018-08-12T00:24:35.250Z,10.18
2018-08-12T00:25:35.463Z,10.1
2018-08-12T00:26:35.447Z,10.1
2018-08-12T00:27:35.441Z,10.11
2018-08-12T00:28:35.164Z,10.05
2018-08-12T00:29:35.413Z,10.08
2018-08-12T00:30:35.152Z,10.03
2018-08-12T00:31:35.397Z,10.03
2018-08-12T00:32:35.395Z,10.08
2018-08-12T00:33:35.383Z,10.1
2018-08-12T00:34:35.373Z,10.14
2018-08-12T00:35:35.104Z,10.05
2018-08-12T00:36:35.356Z,10.15
2018-08-12T00:37:35.089Z,10.15
2018-08-12T00:38:35.133Z,10.23
2018-08-12T00:39:35.070Z,10.14
2018-08-12T00:40:35.319Z,10.14
2018-08-12T00:41:35.049Z,10.18
2018-08-12T00:42:35.293Z,10.17
2018-08-12T00:43:35.288Z,10.17
2018-08-12T00:44:35.287Z,10.25
2018-08-12T00:45:35.015Z,10.17
2018-08-12T00:46:35.004Z,10.14
2018-08-12T00:47:35.250Z,10.31
2018-08-12T00:48:35.242Z,10.13
2018-08-12T00:49:34.975Z,10.11
2018-08-12T00:50:35.225Z,10.25
2018-08-12T00:51:35.216Z,10.14
2018-08-12T00:52:35.207Z,10.18
2018-08-12T00:53:35.200Z,10.2
2018-08-12T00:54:34.932Z,10.2
2018-08-12T00:55:35.193Z,10.21
2018-08-12T00:56:35.172Z,10.18
2018-08-12T00:57:34.902Z,10.25
2018-08-12T00:58:35.161Z,10.18
2018-08-12T00:59:34.884Z,10.18
2018-08-12T01:00:34.619Z,10.18
2018-08-12T01:01:35.125Z,10.14
2018-08-12T01:02:35.121Z,10.2
2018-08-12T01:03:35.110Z,10.13
2018-08-12T01:04:34.583Z,10.13
2018-08-12T01:05:35.091Z,10.2
2018-08-12T01:06:34.585Z,10.14
2018-08-12T01:07:35.068Z,10.15
2018-08-12T01:08:35.060Z,10.1
2018-08-12T01:09:35.057Z,10.13
2018-08-12T01:10:35.046Z,10.03
2018-08-12T01:11:35.029Z,10.14
2018-08-12T01:12:34.512Z,10.07
2018-08-12T01:13:35.014Z,10.13
2018-08-12T01:14:35.006Z,10.03
2018-08-12T01:15:34.745Z,10.05
2018-08-12T01:16:34.741Z,10.07
2018-08-12T01:17:34.730Z,9.93
2018-08-12T01:18:34.976Z,9.9
2018-08-12T01:19:34.956Z,9.9
2018-08-12T01:20:34.950Z,9.96
2018-08-12T01:21:34.942Z,9.98
2018-08-12T01:22:34.933Z,9.88
2018-08-12T01:23:34.925Z,9.9
2018-08-12T01:24:34.916Z,9.88
2018-08-12T01:25:34.909Z,9.9
2018-08-12T01:26:34.639Z,9.84
2018-08-12T01:27:34.883Z,9.9
2018-08-12T01:28:34.887Z,9.81
2018-08-12T01:29:34.874Z,9.78
2018-08-12T01:30:34.859Z,9.8
2018-08-12T01:31:34.335Z,9.81
2018-08-12T01:32:34.840Z,9.81
2018-08-12T01:33:34.830Z,9.82
2018-08-12T01:34:34.818Z,9.81
2018-08-12T01:35:34.553Z,9.81
2018-08-12T01:36:34.817Z,9.72
2018-08-12T01:37:34.792Z,9.72
2018-08-12T01:38:34.525Z,9.77
2018-08-12T01:39:34.785Z,9.67
2018-08-12T01:40:34.250Z,9.72
2018-08-12T01:41:34.239Z,9.7
2018-08-12T01:42:34.755Z,9.71
2018-08-12T01:43:34.746Z,9.71
2018-08-12T01:44:34.724Z,9.72
2018-08-12T01:45:34.717Z,9.72
2018-08-12T01:46:34.709Z,9.77
2018-08-12T01:47:34.693Z,9.78
2018-08-12T01:48:34.685Z,9.77
2018-08-12T01:49:34.426Z,9.77
2018-08-12T01:50:34.669Z,9.84
2018-08-12T01:51:34.662Z,9.82
2018-08-12T01:52:34.396Z,9.77
2018-08-12T01:53:34.641Z,9.88
2018-08-12T01:54:34.629Z,9.92
2018-08-12T01:55:34.618Z,9.98
2018-08-12T01:56:34.612Z,9.93
2018-08-12T01:57:34.601Z,9.9
2018-08-12T01:58:34.602Z,9.93
2018-08-12T01:59:34.330Z,9.92
2018-08-12T02:00:34.320Z,9.95
2018-08-12T02:01:34.569Z,9.93
2018-08-12T02:02:34.564Z,10.07
2018-08-12T02:03:34.555Z,10.02
2018-08-12T02:04:34.540Z,9.96
2018-08-12T02:05:34.015Z,10
2018-08-12T02:06:34.524Z,10
2018-08-12T02:07:34.522Z,10.13
2018-08-12T02:08:34.503Z,10
2018-08-12T02:09:34.491Z,10.05
2018-08-12T02:10:34.221Z,10.08
2018-08-12T02:11:34.221Z,10.1
2018-08-12T02:12:34.212Z,10.08
2018-08-12T02:13:34.460Z,10.03
2018-08-12T02:14:34.189Z,10.1
2018-08-12T02:15:34.442Z,10.1
2018-08-12T02:16:34.426Z,10.14
2018-08-12T02:17:34.426Z,10.15
2018-08-12T02:18:34.407Z,10.13
2018-08-12T02:19:34.400Z,10.18
2018-08-12T02:20:34.390Z,10.2
2018-08-12T02:21:34.378Z,10.14
2018-08-12T02:22:34.373Z,10.25
2018-08-12T02:23:34.369Z,10.13
2018-08-12T02:24:34.092Z,10.17
2018-08-12T02:25:34.353Z,10.13
2018-08-12T02:26:34.075Z,10.21
2018-08-12T02:27:34.329Z,10.13
2018-08-12T02:28:34.322Z,10.2
2018-08-12T02:29:34.310Z,10.15
2018-08-12T02:30:34.316Z,10.13
2018-08-12T02:31:34.293Z,10.15
2018-08-12T02:32:34.023Z,10.21
2018-08-12T02:33:34.319Z,10.17
2018-08-12T02:34:34.268Z,10.18
2018-08-12T02:35:33.997Z,10.13
2018-08-12T02:36:34.245Z,10.07
2018-08-12T02:37:34.246Z,10.05
2018-08-12T02:38:33.970Z,10.05
2018-08-12T02:39:34.215Z,10.02
2018-08-12T02:40:33.952Z,10.07
2018-08-12T02:41:34.202Z,10.03
2018-08-12T02:42:33.942Z,10.02
2018-08-12T02:43:33.961Z,9.99
2018-08-12T02:44:34.170Z,10.1
2018-08-12T02:45:33.904Z,10.13
2018-08-12T02:46:34.150Z,9.99
2018-08-12T02:47:34.154Z,10.08
2018-08-12T02:48:34.139Z,10.08
2018-08-12T02:49:34.121Z,10.03
2018-08-12T02:50:34.121Z,10.02
2018-08-12T02:51:34.108Z,10.03
2018-08-12T02:52:33.835Z,10
2018-08-12T02:53:34.099Z,10
2018-08-12T02:54:34.075Z,9.99
2018-08-12T02:55:34.086Z,10.02
2018-08-12T02:56:34.062Z,10.05
2018-08-12T02:57:34.051Z,10.03
2018-08-12T02:58:34.039Z,10
2018-08-12T02:59:33.777Z,10.02
2018-08-12T03:00:33.761Z,10
2018-08-12T03:01:34.011Z,9.99
2018-08-12T03:02:33.750Z,9.9
2018-08-12T03:03:34.003Z,9.9
2018-08-12T03:04:33.981Z,9.95
2018-08-12T03:05:33.978Z,9.92
2018-08-12T03:06:33.960Z,9.9
2018-08-12T03:07:33.959Z,9.95
2018-08-12T03:08:33.947Z,9.99
2018-08-12T03:09:33.945Z,9.96
2018-08-12T03:10:33.942Z,9.95
2018-08-12T03:11:33.923Z,9.92
2018-08-12T03:12:33.909Z,9.93
2018-08-12T03:13:33.646Z,9.95
2018-08-12T03:14:33.890Z,9.93
2018-08-12T03:15:33.882Z,9.93
2018-08-12T03:16:33.874Z,9.93
2018-08-12T03:17:33.611Z,9.96
2018-08-12T03:18:33.851Z,9.99
2018-08-12T03:19:33.857Z,9.93
2018-08-12T03:20:33.834Z,9.93
2018-08-12T03:21:33.825Z,9.95
2018-08-12T03:22:33.707Z,9.93
2018-08-12T03:23:33.811Z,9.93
2018-08-12T03:24:33.805Z,10
2018-08-12T03:25:33.791Z,10.02
2018-08-12T03:26:33.773Z,10.07
2018-08-12T03:27:33.766Z,10.03
2018-08-12T03:28:33.760Z,10.02
2018-08-12T03:29:33.749Z,10.15
2018-08-12T03:30:33.742Z,9.99
2018-08-12T03:31:33.814Z,9.99
2018-08-12T03:32:33.466Z,10.11
2018-08-12T03:33:33.705Z,10.02
2018-08-12T03:34:33.453Z,10.05
2018-08-12T03:35:33.692Z,10.15
2018-08-12T03:36:33.424Z,10.13
2018-08-12T03:37:33.418Z,10.18
2018-08-12T03:38:33.663Z,10.2
2018-08-12T03:39:33.653Z,10.2
2018-08-12T03:40:33.654Z,10.29
2018-08-12T03:41:33.649Z,10.15
2018-08-12T03:42:33.375Z,10.17
2018-08-12T03:43:33.618Z,10.23
2018-08-12T03:44:33.615Z,10.28
2018-08-12T03:45:33.345Z,10.2
2018-08-12T03:46:33.590Z,10.26
2018-08-12T03:47:33.324Z,10.29
2018-08-12T03:48:33.311Z,10.31
2018-08-12T03:49:33.309Z,10.32
2018-08-12T03:50:33.558Z,10.29
2018-08-12T03:51:33.286Z,10.32
2018-08-12T03:52:33.533Z,10.31
2018-08-12T03:53:33.270Z,10.32
2018-08-12T03:54:33.513Z,10.39
2018-08-12T03:55:33.797Z,10.36
2018-08-12T03:56:33.505Z,10.35
2018-08-12T03:57:33.497Z,10.39
2018-08-12T03:58:33.478Z,10.39
2018-08-12T03:59:33.468Z,10.41
2018-08-12T04:00:33.465Z,10.39
2018-08-12T04:01:33.197Z,10.42
2018-08-12T04:02:33.194Z,10.49
2018-08-12T04:03:33.180Z,10.42
2018-08-12T04:04:33.427Z,10.49
2018-08-12T04:05:33.160Z,10.46
2018-08-12T04:06:33.403Z,10.54
2018-08-12T04:07:33.396Z,10.52
2018-08-12T04:08:33.397Z,10.49
2018-08-12T04:09:33.384Z,10.54
2018-08-12T04:10:33.113Z,10.55
2018-08-12T04:11:33.354Z,10.67
2018-08-12T04:12:33.090Z,10.69
2018-08-12T04:13:33.345Z,10.79
2018-08-12T04:14:33.334Z,10.84
2018-08-12T04:15:33.318Z,10.75
2018-08-12T04:16:32.804Z,10.9
2018-08-12T04:17:33.311Z,10.88
2018-08-12T04:18:33.298Z,10.92
2018-08-12T04:19:33.292Z,11
2018-08-12T04:20:33.275Z,11.02
2018-08-12T04:21:33.283Z,10.98
2018-08-12T04:22:33.271Z,10.97
2018-08-12T04:23:33.256Z,11.13
2018-08-12T04:24:33.246Z,11.03
2018-08-12T04:25:32.991Z,11.09
2018-08-12T04:26:33.223Z,11.12
2018-08-12T04:27:32.959Z,11.12
2018-08-12T04:28:33.205Z,11.12
2018-08-12T04:29:33.206Z,11.26
2018-08-12T04:30:32.935Z,11.34
2018-08-12T04:31:33.187Z,11.33
2018-08-12T04:32:33.169Z,11.43
2018-08-12T04:33:32.904Z,11.48
2018-08-12T04:34:33.151Z,11.42
2018-08-12T04:35:33.144Z,11.46
2018-08-12T04:36:33.188Z,11.43
2018-08-12T04:37:33.129Z,11.45
2018-08-12T04:38:33.119Z,11.49
2018-08-12T04:39:33.129Z,11.6
2018-08-12T04:40:33.103Z,11.48
2018-08-12T04:41:33.094Z,11.53
2018-08-12T04:42:33.080Z,11.57
2018-08-12T04:43:33.078Z,11.6
2018-08-12T04:44:33.063Z,11.61
2018-08-12T04:45:33.059Z,11.63
2018-08-12T04:46:32.793Z,11.66
2018-08-12T04:47:33.042Z,11.71
2018-08-12T04:48:33.032Z,11.66
2018-08-12T04:49:32.768Z,11.67
2018-08-12T04:50:33.013Z,11.7
2018-08-12T04:51:33.006Z,11.78
2018-08-12T04:52:32.740Z,11.76
2018-08-12T04:53:32.732Z,11.85
2018-08-12T04:54:32.980Z,11.84
2018-08-12T04:55:32.973Z,11.85
2018-08-12T04:56:32.959Z,11.79
2018-08-12T04:57:32.696Z,11.97
2018-08-12T04:58:32.689Z,11.95
2018-08-12T04:59:32.931Z,12
2018-08-12T05:00:32.946Z,11.95
2018-08-12T05:01:32.917Z,12
2018-08-12T05:02:32.909Z,12.01
2018-08-12T05:03:32.647Z,12.05
2018-08-12T05:04:32.897Z,12.04
2018-08-12T05:05:32.636Z,12.13
2018-08-12T05:06:32.878Z,12.19
2018-08-12T05:07:32.879Z,12.15
2018-08-12T05:08:32.862Z,12.19
2018-08-12T05:09:32.852Z,12.2
2018-08-12T05:10:32.847Z,12.37
2018-08-12T05:11:32.839Z,12.28
2018-08-12T05:12:32.836Z,12.26
2018-08-12T05:13:32.571Z,12.4
2018-08-12T05:14:32.813Z,12.41
2018-08-12T05:15:32.806Z,12.43
2018-08-12T05:16:32.801Z,12.52
2018-08-12T05:17:32.534Z,12.51
2018-08-12T05:18:32.535Z,12.48
2018-08-12T05:19:32.774Z,12.61
2018-08-12T05:20:32.768Z,12.59
2018-08-12T05:21:32.499Z,12.69
2018-08-12T05:22:32.753Z,12.74
2018-08-12T05:23:32.488Z,12.74
2018-08-12T05:24:32.479Z,12.94
2018-08-12T05:25:32.727Z,12.98
2018-08-12T05:26:32.718Z,13.09
2018-08-12T05:27:32.724Z,13.07
2018-08-12T05:28:32.709Z,13.19
2018-08-12T05:29:32.697Z,13.17
2018-08-12T05:30:32.687Z,13.25
2018-08-12T05:31:32.420Z,13.37
2018-08-12T05:32:32.415Z,13.31
2018-08-12T05:33:32.661Z,13.42
2018-08-12T05:34:32.412Z,13.5
2018-08-12T05:35:32.651Z,13.54
2018-08-12T05:36:32.641Z,13.51
2018-08-12T05:37:32.636Z,13.55
2018-08-12T05:38:32.640Z,13.63
2018-08-12T05:39:32.625Z,13.7
2018-08-12T05:40:32.624Z,13.65
2018-08-12T05:41:32.093Z,13.72
2018-08-12T05:42:32.600Z,13.83
2018-08-12T05:43:32.587Z,13.91
2018-08-12T05:44:32.327Z,13.97
2018-08-12T05:45:32.579Z,14.05
2018-08-12T05:46:32.566Z,14.09
2018-08-12T05:47:32.562Z,14.05
2018-08-12T05:48:32.557Z,14.2
2018-08-12T05:49:32.552Z,14.31
2018-08-12T05:50:32.547Z,14.33
2018-08-12T05:51:32.453Z,14.45
2018-08-12T05:52:32.528Z,14.48
2018-08-12T05:53:32.519Z,14.53
2018-08-12T05:54:32.528Z,14.48
2018-08-12T05:55:32.256Z,14.69
2018-08-12T05:56:32.501Z,14.75
2018-08-12T05:57:32.241Z,14.79
2018-08-12T05:58:32.231Z,14.94
2018-08-12T05:59:32.484Z,14.97
2018-08-12T06:00:32.222Z,15.02
2018-08-12T06:01:32.471Z,15.01
2018-08-12T06:02:32.457Z,15.25
2018-08-12T06:03:32.197Z,15.26
2018-08-12T06:04:32.452Z,15.31
2018-08-12T06:05:32.439Z,15.41
2018-08-12T06:06:32.443Z,15.43
2018-08-12T06:07:32.174Z,15.56
2018-08-12T06:08:32.169Z,15.56
2018-08-12T06:09:32.427Z,15.7
2018-08-12T06:10:32.421Z,15.74
2018-08-12T06:11:32.146Z,15.78
2018-08-12T06:12:32.148Z,15.84
2018-08-12T06:13:32.135Z,15.81
2018-08-12T06:14:32.137Z,15.96
2018-08-12T06:15:32.482Z,16.04
2018-08-12T06:16:32.386Z,16
2018-08-12T06:17:31.967Z,16.08
2018-08-12T06:18:32.114Z,16.18
2018-08-12T06:19:31.845Z,16.11
2018-08-12T06:20:32.357Z,16.26
2018-08-12T06:21:32.350Z,16.34
2018-08-12T06:22:32.085Z,16.3
2018-08-12T06:23:32.343Z,16.34
2018-08-12T06:24:32.329Z,16.42
2018-08-12T06:25:32.069Z,16.55
2018-08-12T06:26:32.074Z,16.59
2018-08-12T06:27:32.322Z,16.67
2018-08-12T06:28:32.314Z,16.73
2018-08-12T06:29:32.050Z,16.8
2018-08-12T06:30:32.046Z,16.85
2018-08-12T06:31:32.509Z,16.94
2018-08-12T06:32:32.042Z,16.95
2018-08-12T06:33:32.290Z,17.09
2018-08-12T06:34:31.899Z,17.17
2018-08-12T06:35:32.279Z,17.21
2018-08-12T06:36:32.267Z,17.27
2018-08-12T06:37:32.268Z,17.35
2018-08-12T06:38:32.265Z,17.54
2018-08-12T06:39:32.003Z,17.57
2018-08-12T06:40:32.252Z,17.69
2018-08-12T06:41:31.738Z,17.77
2018-08-12T06:42:31.998Z,17.84
2018-08-12T06:43:32.234Z,17.92
2018-08-12T06:44:32.235Z,18.02
2018-08-12T06:45:32.243Z,18.06
2018-08-12T06:46:32.389Z,18.19
2018-08-12T06:47:32.227Z,18.16
2018-08-12T06:48:32.227Z,18.32
2018-08-12T06:49:31.965Z,18.45
2018-08-12T06:50:32.210Z,18.5
2018-08-12T06:51:32.215Z,18.68
2018-08-12T06:52:31.688Z,18.71
2018-08-12T06:53:32.202Z,18.79
2018-08-12T06:54:31.682Z,18.96
2018-08-12T06:55:31.937Z,19.23
2018-08-12T06:56:32.190Z,19.49
2018-08-12T06:57:32.186Z,19.87
2018-08-12T06:58:32.179Z,20.23
2018-08-12T06:59:31.923Z,20.56
2018-08-12T07:00:31.725Z,20.88
2018-08-12T07:01:31.918Z,21.23
2018-08-12T07:02:32.177Z,21.49
2018-08-12T07:03:31.917Z,21.85
2018-08-12T07:04:32.181Z,22.12
2018-08-12T07:05:32.169Z,22.2
2018-08-12T07:06:32.157Z,22.36
2018-08-12T07:07:32.158Z,22.59
2018-08-12T07:08:32.150Z,22.88
2018-08-12T07:09:32.152Z,23.32
2018-08-12T07:10:31.899Z,23.56
2018-08-12T07:11:32.153Z,23.81
2018-08-12T07:12:31.896Z,23.99
2018-08-12T07:13:32.163Z,24.22
2018-08-12T07:14:32.264Z,24.56
2018-08-12T07:15:32.150Z,24.94
2018-08-12T07:16:31.890Z,25.12
2018-08-12T07:17:31.916Z,25.27
2018-08-12T07:18:32.151Z,25.3
2018-08-12T07:19:32.149Z,25.26
2018-08-12T07:20:31.889Z,25.2
2018-08-12T07:21:32.146Z,25.07
2018-08-12T07:22:32.154Z,24.96
2018-08-12T07:23:32.148Z,24.85
2018-08-12T07:24:31.891Z,24.71
2018-08-12T07:25:32.147Z,24.83
2018-08-12T07:26:32.145Z,25.09
2018-08-12T07:27:32.148Z,25.08
2018-08-12T07:28:32.152Z,25.19
2018-08-12T07:29:32.151Z,25.51
2018-08-12T07:30:32.152Z,25.75
2018-08-12T07:31:32.161Z,26
2018-08-12T07:32:32.157Z,26.23
2018-08-12T07:33:32.165Z,26.5
2018-08-12T07:34:31.900Z,26.74
2018-08-12T07:35:31.905Z,26.78
2018-08-12T07:36:32.167Z,26.79
2018-08-12T07:37:31.905Z,26.82
2018-08-12T07:38:32.175Z,27
2018-08-12T07:39:31.909Z,27.3
2018-08-12T07:40:31.948Z,27.43
2018-08-12T07:41:32.171Z,27.46
2018-08-12T07:42:31.658Z,27.52
2018-08-12T07:43:32.216Z,27.68
2018-08-12T07:44:32.179Z,27.57
2018-08-12T07:45:32.172Z,27.48
2018-08-12T07:46:32.177Z,27.27
2018-08-12T07:47:32.181Z,26.94
2018-08-12T07:48:32.183Z,26.86
2018-08-12T07:49:32.180Z,26.69
2018-08-12T07:50:31.925Z,26.63
2018-08-12T07:51:32.184Z,26.81
2018-08-12T07:52:31.931Z,26.75
2018-08-12T07:53:31.938Z,26.61
2018-08-12T07:54:32.194Z,26.57
2018-08-12T07:55:32.311Z,26.5
2018-08-12T07:56:32.193Z,26.42
2018-08-12T07:57:32.200Z,26.37
2018-08-12T07:58:32.201Z,26.37
2018-08-12T07:59:32.199Z,26.37
2018-08-12T08:00:32.202Z,26.23
2018-08-12T08:01:31.950Z,26.11
2018-08-12T08:02:31.949Z,26.16
2018-08-12T08:03:32.208Z,25.84
2018-08-12T08:04:32.206Z,25.78
2018-08-12T08:05:32.211Z,25.59
2018-08-12T08:06:32.215Z,25.52
2018-08-12T08:07:32.214Z,25.33
2018-08-12T08:08:31.962Z,25.23
2018-08-12T08:09:31.708Z,24.94
2018-08-12T08:10:31.959Z,24.67
2018-08-12T08:11:32.222Z,24.49
2018-08-12T08:12:32.339Z,24.36
2018-08-12T08:13:32.217Z,24.21
2018-08-12T08:14:32.223Z,24.15
2018-08-12T08:15:31.973Z,24.03
2018-08-12T08:16:31.969Z,23.96
2018-08-12T08:17:31.968Z,23.78
2018-08-12T08:18:31.973Z,23.77
2018-08-12T08:19:31.973Z,23.75
2018-08-12T08:20:32.227Z,23.66
2018-08-12T08:21:31.718Z,23.45
2018-08-12T08:22:32.242Z,23.52
2018-08-12T08:23:32.239Z,23.4
2018-08-12T08:24:32.235Z,23.25
2018-08-12T08:25:32.184Z,23.19
2018-08-12T08:26:32.243Z,23.21
2018-08-12T08:27:32.235Z,23.18
2018-08-12T08:28:32.249Z,23.19
2018-08-12T08:29:31.987Z,23.22
2018-08-12T08:30:32.241Z,23.25
2018-08-12T08:31:32.183Z,23.22
2018-08-12T08:32:31.988Z,23.22
2018-08-12T08:33:31.731Z,23.14
2018-08-12T08:34:31.994Z,23.29
2018-08-12T08:35:32.249Z,23.34
2018-08-12T08:36:31.991Z,23.22
2018-08-12T08:37:32.247Z,23.14
2018-08-12T08:38:32.008Z,23.15
2018-08-12T08:39:32.253Z,23.12
2018-08-12T08:40:32.249Z,23.15
2018-08-12T08:41:31.991Z,23.28
2018-08-12T08:42:31.995Z,23.37
2018-08-12T08:43:32.249Z,23.29
2018-08-12T08:44:32.252Z,23.44
2018-08-12T08:45:31.996Z,23.42
2018-08-12T08:46:31.995Z,23.41
2018-08-12T08:47:32.261Z,23.42
2018-08-12T08:48:32.254Z,23.45
2018-08-12T08:49:32.256Z,23.45
2018-08-12T08:50:32.334Z,23.38
2018-08-12T08:51:32.258Z,23.4
2018-08-12T08:52:31.999Z,23.38
2018-08-12T08:53:32.000Z,23.41
2018-08-12T08:54:32.014Z,23.42
2018-08-12T08:55:32.301Z,23.42
2018-08-12T08:56:32.260Z,23.56
2018-08-12T08:57:32.261Z,23.45
2018-08-12T08:58:32.263Z,23.59
2018-08-12T08:59:32.306Z,23.53
2018-08-12T09:00:32.264Z,23.62
2018-08-12T09:01:32.659Z,23.71
2018-08-12T09:02:32.265Z,23.75
2018-08-12T09:03:32.269Z,23.87
2018-08-12T09:04:32.017Z,23.94
2018-08-12T09:05:32.267Z,24.03
2018-08-12T09:06:32.008Z,23.97
2018-08-12T09:07:32.012Z,23.99
2018-08-12T09:08:33.382Z,24.07
2018-08-12T09:09:32.281Z,24
2018-08-12T09:10:32.269Z,23.85
2018-08-12T09:11:32.051Z,23.9
2018-08-12T09:12:32.273Z,23.94
2018-08-12T09:13:32.014Z,24.02
2018-08-12T09:14:32.274Z,24.03
2018-08-12T09:15:32.273Z,23.99
2018-08-12T09:16:32.273Z,23.85
2018-08-12T09:17:31.761Z,23.92
2018-08-12T09:18:32.282Z,23.75
2018-08-12T09:19:32.277Z,23.81
2018-08-12T09:20:32.270Z,23.72
2018-08-12T09:21:32.022Z,23.81
2018-08-12T09:22:32.276Z,23.89
2018-08-12T09:23:32.281Z,23.89
2018-08-12T09:24:32.022Z,23.97
2018-08-12T09:25:32.283Z,24.02
2018-08-12T09:26:32.024Z,24.08
2018-08-12T09:27:32.282Z,24.04
2018-08-12T09:28:32.022Z,24.07
2018-08-12T09:29:32.288Z,24.14
2018-08-12T09:30:32.023Z,24.15
2018-08-12T09:31:31.766Z,24.17
2018-08-12T09:32:31.771Z,24.17
2018-08-12T09:33:32.284Z,24.33
2018-08-12T09:34:32.288Z,24.34
2018-08-12T09:35:32.283Z,24.51
2018-08-12T09:36:32.312Z,24.39
2018-08-12T09:37:31.778Z,24.32
2018-08-12T09:38:32.293Z,24.21
2018-08-12T09:39:32.039Z,24.18
2018-08-12T09:40:32.034Z,24.14
2018-08-12T09:41:31.780Z,24.07
2018-08-12T09:42:32.044Z,24.12
2018-08-12T09:43:32.294Z,24.24
2018-08-12T09:44:32.300Z,24.3
2018-08-12T09:45:32.298Z,24.39
2018-08-12T09:46:32.041Z,24.48
2018-08-12T09:47:32.304Z,24.52
2018-08-12T09:48:32.301Z,24.64
2018-08-12T09:49:32.305Z,24.82
2018-08-12T09:50:32.309Z,24.86
2018-08-12T09:51:32.758Z,24.97
2018-08-12T09:52:32.047Z,25.07
2018-08-12T09:53:32.304Z,25.09
2018-08-12T09:54:32.050Z,24.96
2018-08-12T09:55:32.060Z,25.11
2018-08-12T09:56:32.316Z,25.17
2018-08-12T09:57:31.799Z,25.3
2018-08-12T09:58:32.193Z,25.23
2018-08-12T09:59:32.314Z,25.32
2018-08-12T10:00:32.493Z,25.27
2018-08-12T10:01:32.319Z,25.34
2018-08-12T10:02:32.064Z,25.38
2018-08-12T10:03:32.325Z,25.37
2018-08-12T10:04:32.066Z,25.24
2018-08-12T10:05:32.321Z,25.32
2018-08-12T10:06:32.324Z,25.38
2018-08-12T10:07:32.659Z,25.26
2018-08-12T10:08:32.328Z,25.2
2018-08-12T10:09:32.326Z,25.17
2018-08-12T10:10:32.382Z,25.05
2018-08-12T10:11:32.077Z,25.11
2018-08-12T10:12:32.078Z,24.97
2018-08-12T10:13:32.343Z,24.93
2018-08-12T10:14:32.082Z,24.8
2018-08-12T10:15:32.500Z,24.87
2018-08-12T10:16:32.341Z,24.94
2018-08-12T10:17:32.342Z,25.11
2018-08-12T10:18:32.347Z,25.05
2018-08-12T10:19:32.090Z,25.09
2018-08-12T10:20:32.350Z,24.97
2018-08-12T10:21:32.581Z,24.87
2018-08-12T10:22:32.350Z,24.7
2018-08-12T10:23:32.092Z,24.74
2018-08-12T10:24:32.359Z,24.69
2018-08-12T10:25:32.103Z,25
2018-08-12T10:26:31.842Z,25.01
2018-08-12T10:27:32.360Z,25.11
2018-08-12T10:28:32.358Z,25.14
2018-08-12T10:29:32.364Z,25.12
2018-08-12T10:30:32.358Z,25.14
2018-08-12T10:31:32.119Z,25.12
2018-08-12T10:32:32.112Z,25.08
2018-08-12T10:33:32.115Z,25.04
2018-08-12T10:34:32.371Z,25.01
2018-08-12T10:35:32.365Z,25.05
2018-08-12T10:36:32.381Z,25.11
2018-08-12T10:37:31.857Z,25.09
2018-08-12T10:38:32.405Z,25.11
2018-08-12T10:39:32.376Z,25.15
2018-08-12T10:40:32.150Z,25.26
2018-08-12T10:41:32.384Z,25.33
2018-08-12T10:42:32.383Z,25.38
2018-08-12T10:43:32.128Z,25.47
2018-08-12T10:44:32.721Z,25.59
2018-08-12T10:45:32.387Z,25.56
2018-08-12T10:46:31.879Z,25.63
2018-08-12T10:47:32.137Z,25.64
2018-08-12T10:48:32.131Z,25.78
2018-08-12T10:49:32.132Z,25.93
2018-08-12T10:50:32.397Z,26.01
2018-08-12T10:51:32.399Z,26.12
2018-08-12T10:52:32.404Z,26.19
2018-08-12T10:53:31.884Z,26.2
2018-08-12T10:54:32.406Z,26.23
2018-08-12T10:55:32.406Z,26.19
2018-08-12T10:56:31.890Z,26.17
2018-08-12T10:57:32.411Z,26.01
2018-08-12T10:58:32.160Z,25.99
2018-08-12T10:59:32.481Z,25.84
2018-08-12T11:00:32.419Z,25.69
2018-08-12T11:01:32.165Z,25.54
2018-08-12T11:02:32.427Z,25.59
2018-08-12T11:03:32.165Z,25.64
2018-08-12T11:04:32.423Z,25.78
2018-08-12T11:05:32.421Z,25.88
2018-08-12T11:06:32.169Z,25.89
2018-08-12T11:07:31.981Z,25.85
2018-08-12T11:08:32.174Z,25.81
2018-08-12T11:09:32.439Z,25.84
2018-08-12T11:10:32.432Z,25.81
2018-08-12T11:11:32.178Z,25.78
2018-08-12T11:12:32.859Z,25.76
2018-08-12T11:13:32.439Z,25.81
2018-08-12T11:14:32.445Z,25.86
2018-08-12T11:15:32.446Z,25.88
2018-08-12T11:16:32.230Z,25.81
2018-08-12T11:17:31.932Z,25.75
2018-08-12T11:18:32.195Z,25.79
2018-08-12T11:19:32.447Z,25.85
2018-08-12T11:20:31.980Z,25.96
2018-08-12T11:21:32.462Z,25.91
2018-08-12T11:22:31.943Z,26.07
2018-08-12T11:23:32.457Z,26.16
2018-08-12T11:24:32.456Z,26.16
2018-08-12T11:25:32.465Z,26.23
2018-08-12T11:26:32.209Z,26.22
2018-08-12T11:27:32.470Z,26.17
2018-08-12T11:28:32.291Z,26.15
2018-08-12T11:29:32.226Z,26.23
2018-08-12T11:30:32.222Z,26.06
2018-08-12T11:31:32.480Z,26.16
2018-08-12T11:32:32.481Z,26.04
2018-08-12T11:33:32.479Z,26.07
2018-08-12T11:34:32.484Z,26.04
2018-08-12T11:35:32.225Z,26.06
2018-08-12T11:36:32.484Z,26.06
2018-08-12T11:37:32.489Z,26.06
2018-08-12T11:38:32.501Z,26.07
2018-08-12T11:39:32.234Z,26.15
2018-08-12T11:40:32.492Z,26.23
2018-08-12T11:41:32.242Z,26.15
2018-08-12T11:42:32.501Z,26.23
2018-08-12T11:43:32.506Z,26.2
2018-08-12T11:44:32.509Z,26.27
2018-08-12T11:45:32.501Z,26.24
2018-08-12T11:46:32.505Z,26.24
2018-08-12T11:47:32.844Z,26.06
2018-08-12T11:48:32.255Z,26.06
2018-08-12T11:49:32.513Z,26.01
2018-08-12T11:50:32.264Z,26.03
2018-08-12T11:51:32.517Z,25.99
2018-08-12T11:52:32.517Z,25.88
2018-08-12T11:53:32.520Z,25.91
2018-08-12T11:54:32.532Z,26
2018-08-12T11:55:32.522Z,25.97
2018-08-12T11:56:32.271Z,26.06
2018-08-12T11:57:32.527Z,26.06
2018-08-12T11:58:32.276Z,26
2018-08-12T11:59:32.283Z,25.91
2018-08-12T12:00:32.539Z,26
2018-08-12T12:01:32.553Z,25.99
2018-08-12T12:02:32.544Z,26.06
2018-08-12T12:03:32.287Z,26.09
2018-08-12T12:04:32.553Z,26.17
2018-08-12T12:05:32.548Z,26.23
2018-08-12T12:06:32.291Z,26.19
2018-08-12T12:07:32.298Z,26.27
2018-08-12T12:08:32.040Z,26.24
2018-08-12T12:09:32.304Z,26.09
2018-08-12T12:10:32.568Z,26.2
2018-08-12T12:11:32.302Z,26.09
2018-08-12T12:12:32.307Z,26.07
2018-08-12T12:13:32.570Z,25.96
2018-08-12T12:14:32.566Z,25.99
2018-08-12T12:15:32.567Z,25.89
2018-08-12T12:16:32.574Z,25.86
2018-08-12T12:17:32.060Z,25.86
2018-08-12T12:18:32.320Z,25.91
2018-08-12T12:19:32.575Z,25.86
2018-08-12T12:20:32.744Z,25.76
2018-08-12T12:21:32.588Z,25.63
2018-08-12T12:22:32.325Z,25.49
2018-08-12T12:23:32.583Z,25.54
2018-08-12T12:24:32.594Z,25.32
2018-08-12T12:25:32.591Z,25.49
2018-08-12T12:26:32.594Z,25.49
2018-08-12T12:27:32.595Z,25.6
2018-08-12T12:28:32.595Z,25.7
2018-08-12T12:29:32.339Z,25.69
2018-08-12T12:30:32.599Z,25.75
2018-08-12T12:31:32.349Z,25.81
2018-08-12T12:32:32.600Z,25.82
2018-08-12T12:33:32.607Z,25.85
2018-08-12T12:34:32.361Z,25.82
2018-08-12T12:35:32.429Z,25.84
2018-08-12T12:36:32.611Z,25.93
2018-08-12T12:37:32.614Z,25.84
2018-08-12T12:38:32.612Z,25.85
2018-08-12T12:39:32.620Z,25.82
2018-08-12T12:40:32.621Z,25.82
2018-08-12T12:41:32.366Z,25.84
2018-08-12T12:42:32.368Z,25.88
2018-08-12T12:43:32.628Z,25.91
2018-08-12T12:44:32.632Z,25.94
2018-08-12T12:45:32.371Z,25.91
2018-08-12T12:46:32.374Z,26.06
2018-08-12T12:47:32.646Z,26.04
2018-08-12T12:48:32.381Z,26.06
2018-08-12T12:49:32.891Z,26.06
2018-08-12T12:50:32.462Z,26.19
2018-08-12T12:51:32.655Z,26.17
2018-08-12T12:52:32.644Z,26.07
2018-08-12T12:53:32.655Z,26.09
2018-08-12T12:54:32.396Z,26.04
2018-08-12T12:55:32.651Z,25.93
2018-08-12T12:56:32.144Z,25.91
2018-08-12T12:57:32.660Z,25.93
2018-08-12T12:58:32.663Z,25.94